sensor_id;sensor_type;location;lat;lon;timestamp;P1;durP1;ratioP1;P2;durP2;ratioP2
6013;SDS011;3035;49.928;8.410;2023-06-22T00:02:06;6.37;;;5.20;;
6013;SDS011;3035;49.928;8.410;2023-06-22T00:04:34;8.03;;;4.30;;
6013;SDS011;3035;49.928;8.410;2023-06-22T00:07:03;6.60;;;4.30;;
6013;SDS011;3035;49.928;8.410;2023-06-22T00:09:32;10.27;;;5.30;;
6013;SDS011;3035;49.928;8.410;2023-06-22T00:12:01;7.03;;;4.83;;
6013;SDS011;3035;49.928;8.410;2023-06-22T00:14:30;7.67;;;5.80;;
6013;SDS011;3035;49.928;8.410;2023-06-22T00:16:59;7.53;;;5.33;;
6013;SDS011;3035;49.928;8.410;2023-06-22T00:19:28;6.17;;;5.00;;
6013;SDS011;3035;49.928;8.410;2023-06-22T00:21:56;9.13;;;5.57;;
6013;SDS011;3035;49.928;8.410;2023-06-22T00:24:25;8.17;;;6.03;;
6013;SDS011;3035;49.928;8.410;2023-06-22T00:26:54;10.50;;;5.90;;
6013;SDS011;3035;49.928;8.410;2023-06-22T00:29:22;17.90;;;5.90;;
6013;SDS011;3035;49.928;8.410;2023-06-22T00:31:50;11.10;;;6.07;;
6013;SDS011;3035;49.928;8.410;2023-06-22T00:34:19;17.17;;;5.17;;
6013;SDS011;3035;49.928;8.410;2023-06-22T00:36:48;5.83;;;5.03;;
6013;SDS011;3035;49.928;8.410;2023-06-22T00:39:16;13.40;;;5.70;;
6013;SDS011;3035;49.928;8.410;2023-06-22T00:41:44;11.27;;;5.80;;
6013;SDS011;3035;49.928;8.410;2023-06-22T00:44:12;7.50;;;5.30;;
6013;SDS011;3035;49.928;8.410;2023-06-22T00:46:41;8.97;;;5.70;;
6013;SDS011;3035;49.928;8.410;2023-06-22T00:49:09;8.67;;;5.67;;
6013;SDS011;3035;49.928;8.410;2023-06-22T00:51:37;8.33;;;6.00;;
6013;SDS011;3035;49.928;8.410;2023-06-22T00:54:05;6.10;;;5.20;;
6013;SDS011;3035;49.928;8.410;2023-06-22T00:56:33;12.73;;;5.73;;
6013;SDS011;3035;49.928;8.410;2023-06-22T00:59:02;10.90;;;5.70;;
6013;SDS011;3035;49.928;8.410;2023-06-22T01:01:30;8.67;;;6.83;;
6013;SDS011;3035;49.928;8.410;2023-06-22T01:03:58;10.27;;;7.03;;
6013;SDS011;3035;49.928;8.410;2023-06-22T01:06:29;20.07;;;6.77;;
6013;SDS011;3035;49.928;8.410;2023-06-22T01:09:00;15.37;;;6.70;;
6013;SDS011;3035;49.928;8.410;2023-06-22T01:11:34;8.60;;;6.03;;
6013;SDS011;3035;49.928;8.410;2023-06-22T01:14:06;14.63;;;6.90;;
6013;SDS011;3035;49.928;8.410;2023-06-22T01:16:43;10.03;;;6.97;;
6013;SDS011;3035;49.928;8.410;2023-06-22T01:22:15;18.07;;;7.80;;
6013;SDS011;3035;49.928;8.410;2023-06-22T01:24:48;10.07;;;7.53;;
6013;SDS011;3035;49.928;8.410;2023-06-22T01:27:28;15.53;;;7.67;;
6013;SDS011;3035;49.928;8.410;2023-06-22T01:30:12;8.30;;;6.97;;
6013;SDS011;3035;49.928;8.410;2023-06-22T01:32:40;15.97;;;8.00;;
6013;SDS011;3035;49.928;8.410;2023-06-22T01:35:09;10.20;;;7.50;;
6013;SDS011;3035;49.928;8.410;2023-06-22T01:37:37;11.80;;;7.57;;
6013;SDS011;3035;49.928;8.410;2023-06-22T01:40:05;14.43;;;7.63;;
6013;SDS011;3035;49.928;8.410;2023-06-22T01:42:34;12.37;;;8.00;;
6013;SDS011;3035;49.928;8.410;2023-06-22T01:45:02;10.67;;;8.20;;
6013;SDS011;3035;49.928;8.410;2023-06-22T01:47:31;11.40;;;8.10;;
6013;SDS011;3035;49.928;8.410;2023-06-22T01:49:59;10.73;;;7.90;;
6013;SDS011;3035;49.928;8.410;2023-06-22T01:52:27;11.40;;;7.63;;
6013;SDS011;3035;49.928;8.410;2023-06-22T01:54:56;11.27;;;8.37;;
6013;SDS011;3035;49.928;8.410;2023-06-22T01:57:24;9.30;;;7.70;;
6013;SDS011;3035;49.928;8.410;2023-06-22T01:59:59;9.87;;;7.37;;
6013;SDS011;3035;49.928;8.410;2023-06-22T02:02:30;15.30;;;9.10;;
6013;SDS011;3035;49.928;8.410;2023-06-22T02:05:05;15.33;;;7.83;;
6013;SDS011;3035;49.928;8.410;2023-06-22T02:07:42;24.63;;;7.80;;
6013;SDS011;3035;49.928;8.410;2023-06-22T02:10:02;9.03;;;7.80;;
6013;SDS011;3035;49.928;8.410;2023-06-22T02:12:29;12.10;;;8.63;;
6013;SDS011;3035;49.928;8.410;2023-06-22T02:14:57;10.33;;;7.67;;
6013;SDS011;3035;49.928;8.410;2023-06-22T02:17:26;12.43;;;9.07;;
6013;SDS011;3035;49.928;8.410;2023-06-22T02:19:54;10.90;;;8.10;;
6013;SDS011;3035;49.928;8.410;2023-06-22T02:22:22;11.30;;;8.70;;
6013;SDS011;3035;49.928;8.410;2023-06-22T02:24:50;9.70;;;8.33;;
6013;SDS011;3035;49.928;8.410;2023-06-22T02:27:19;11.57;;;7.73;;
6013;SDS011;3035;49.928;8.410;2023-06-22T02:29:47;15.10;;;8.70;;
6013;SDS011;3035;49.928;8.410;2023-06-22T02:32:15;10.13;;;7.73;;
6013;SDS011;3035;49.928;8.410;2023-06-22T02:34:43;15.77;;;8.80;;
6013;SDS011;3035;49.928;8.410;2023-06-22T02:37:12;24.07;;;9.20;;
6013;SDS011;3035;49.928;8.410;2023-06-22T02:39:40;15.17;;;9.53;;
6013;SDS011;3035;49.928;8.410;2023-06-22T02:42:08;14.10;;;9.60;;
6013;SDS011;3035;49.928;8.410;2023-06-22T02:44:37;13.90;;;9.73;;
6013;SDS011;3035;49.928;8.410;2023-06-22T02:47:05;12.00;;;9.10;;
6013;SDS011;3035;49.928;8.410;2023-06-22T02:49:33;14.30;;;8.93;;
6013;SDS011;3035;49.928;8.410;2023-06-22T02:52:01;12.10;;;9.10;;
6013;SDS011;3035;49.928;8.410;2023-06-22T02:54:30;13.40;;;8.50;;
6013;SDS011;3035;49.928;8.410;2023-06-22T02:56:58;10.27;;;8.57;;
6013;SDS011;3035;49.928;8.410;2023-06-22T02:59:26;11.20;;;9.03;;
6013;SDS011;3035;49.928;8.410;2023-06-22T03:01:54;12.57;;;9.40;;
6013;SDS011;3035;49.928;8.410;2023-06-22T03:04:22;11.13;;;8.93;;
6013;SDS011;3035;49.928;8.410;2023-06-22T03:06:51;19.53;;;9.33;;
6013;SDS011;3035;49.928;8.410;2023-06-22T03:09:19;14.07;;;8.97;;
6013;SDS011;3035;49.928;8.410;2023-06-22T03:11:47;12.20;;;10.07;;
6013;SDS011;3035;49.928;8.410;2023-06-22T03:14:15;16.47;;;9.93;;
6013;SDS011;3035;49.928;8.410;2023-06-22T03:16:44;9.43;;;7.80;;
6013;SDS011;3035;49.928;8.410;2023-06-22T03:19:12;11.80;;;8.53;;
6013;SDS011;3035;49.928;8.410;2023-06-22T03:21:40;15.70;;;9.73;;
6013;SDS011;3035;49.928;8.410;2023-06-22T03:24:08;24.27;;;10.30;;
6013;SDS011;3035;49.928;8.410;2023-06-22T03:26:37;18.30;;;11.30;;
6013;SDS011;3035;49.928;8.410;2023-06-22T03:29:05;15.00;;;9.90;;
6013;SDS011;3035;49.928;8.410;2023-06-22T03:31:33;13.13;;;9.07;;
6013;SDS011;3035;49.928;8.410;2023-06-22T03:34:01;14.50;;;9.00;;
6013;SDS011;3035;49.928;8.410;2023-06-22T03:36:29;17.83;;;10.20;;
6013;SDS011;3035;49.928;8.410;2023-06-22T03:38:58;13.00;;;10.40;;
6013;SDS011;3035;49.928;8.410;2023-06-22T03:41:26;15.57;;;11.17;;
6013;SDS011;3035;49.928;8.410;2023-06-22T03:43:54;15.03;;;11.30;;
6013;SDS011;3035;49.928;8.410;2023-06-22T03:46:22;10.40;;;9.30;;
6013;SDS011;3035;49.928;8.410;2023-06-22T03:48:51;44.27;;;10.40;;
6013;SDS011;3035;49.928;8.410;2023-06-22T03:51:19;11.33;;;9.30;;
6013;SDS011;3035;49.928;8.410;2023-06-22T03:53:47;30.23;;;9.73;;
6013;SDS011;3035;49.928;8.410;2023-06-22T03:56:15;21.23;;;10.10;;
6013;SDS011;3035;49.928;8.410;2023-06-22T03:58:44;14.70;;;9.27;;
6013;SDS011;3035;49.928;8.410;2023-06-22T04:01:12;13.17;;;9.93;;
6013;SDS011;3035;49.928;8.410;2023-06-22T04:03:40;19.40;;;10.47;;
6013;SDS011;3035;49.928;8.410;2023-06-22T04:06:08;14.90;;;9.70;;
6013;SDS011;3035;49.928;8.410;2023-06-22T04:08:36;20.40;;;11.07;;
6013;SDS011;3035;49.928;8.410;2023-06-22T04:11:05;12.07;;;8.93;;
6013;SDS011;3035;49.928;8.410;2023-06-22T04:13:33;14.90;;;11.53;;
6013;SDS011;3035;49.928;8.410;2023-06-22T04:16:01;20.37;;;11.47;;
6013;SDS011;3035;49.928;8.410;2023-06-22T04:18:29;26.00;;;10.67;;
6013;SDS011;3035;49.928;8.410;2023-06-22T04:20:58;16.03;;;11.00;;
6013;SDS011;3035;49.928;8.410;2023-06-22T04:23:26;17.50;;;10.40;;
6013;SDS011;3035;49.928;8.410;2023-06-22T04:25:54;17.93;;;10.50;;
6013;SDS011;3035;49.928;8.410;2023-06-22T04:28:22;19.10;;;10.30;;
6013;SDS011;3035;49.928;8.410;2023-06-22T04:30:51;13.03;;;9.70;;
6013;SDS011;3035;49.928;8.410;2023-06-22T04:33:19;12.50;;;9.83;;
6013;SDS011;3035;49.928;8.410;2023-06-22T04:35:47;11.73;;;10.53;;
6013;SDS011;3035;49.928;8.410;2023-06-22T04:38:15;12.43;;;10.70;;
6013;SDS011;3035;49.928;8.410;2023-06-22T04:40:43;12.97;;;10.63;;
6013;SDS011;3035;49.928;8.410;2023-06-22T04:43:12;12.33;;;10.27;;
6013;SDS011;3035;49.928;8.410;2023-06-22T04:45:40;17.70;;;10.90;;
6013;SDS011;3035;49.928;8.410;2023-06-22T04:48:08;12.60;;;10.00;;
6013;SDS011;3035;49.928;8.410;2023-06-22T04:50:36;18.03;;;12.03;;
6013;SDS011;3035;49.928;8.410;2023-06-22T04:53:05;19.70;;;10.43;;
6013;SDS011;3035;49.928;8.410;2023-06-22T04:55:33;19.47;;;11.17;;
6013;SDS011;3035;49.928;8.410;2023-06-22T04:58:01;13.43;;;10.97;;
6013;SDS011;3035;49.928;8.410;2023-06-22T05:00:30;14.63;;;10.43;;
6013;SDS011;3035;49.928;8.410;2023-06-22T05:02:57;18.50;;;11.57;;
6013;SDS011;3035;49.928;8.410;2023-06-22T05:05:26;17.43;;;11.60;;
6013;SDS011;3035;49.928;8.410;2023-06-22T05:07:56;14.10;;;9.97;;
6013;SDS011;3035;49.928;8.410;2023-06-22T05:10:22;12.50;;;10.30;;
6013;SDS011;3035;49.928;8.410;2023-06-22T05:12:50;14.47;;;10.87;;
6013;SDS011;3035;49.928;8.410;2023-06-22T05:15:18;16.87;;;10.27;;
6013;SDS011;3035;49.928;8.410;2023-06-22T05:17:47;14.20;;;10.90;;
6013;SDS011;3035;49.928;8.410;2023-06-22T05:20:15;17.07;;;10.73;;
6013;SDS011;3035;49.928;8.410;2023-06-22T05:22:43;15.43;;;11.00;;
6013;SDS011;3035;49.928;8.410;2023-06-22T05:25:12;18.20;;;11.40;;
6013;SDS011;3035;49.928;8.410;2023-06-22T05:27:40;18.27;;;10.40;;
6013;SDS011;3035;49.928;8.410;2023-06-22T05:30:08;14.47;;;10.27;;
6013;SDS011;3035;49.928;8.410;2023-06-22T05:32:36;13.23;;;10.67;;
6013;SDS011;3035;49.928;8.410;2023-06-22T05:35:05;13.70;;;10.77;;
6013;SDS011;3035;49.928;8.410;2023-06-22T05:37:33;14.40;;;11.00;;
6013;SDS011;3035;49.928;8.410;2023-06-22T05:40:01;19.07;;;10.80;;
6013;SDS011;3035;49.928;8.410;2023-06-22T05:42:30;14.77;;;11.73;;
6013;SDS011;3035;49.928;8.410;2023-06-22T05:44:58;17.33;;;10.23;;
6013;SDS011;3035;49.928;8.410;2023-06-22T05:47:26;18.10;;;10.70;;
6013;SDS011;3035;49.928;8.410;2023-06-22T05:49:54;13.60;;;10.63;;
6013;SDS011;3035;49.928;8.410;2023-06-22T05:52:23;11.50;;;10.17;;
6013;SDS011;3035;49.928;8.410;2023-06-22T05:54:51;12.97;;;10.03;;
6013;SDS011;3035;49.928;8.410;2023-06-22T05:57:19;17.73;;;10.00;;
6013;SDS011;3035;49.928;8.410;2023-06-22T05:59:47;10.13;;;9.10;;
6013;SDS011;3035;49.928;8.410;2023-06-22T06:02:15;11.93;;;9.23;;
6013;SDS011;3035;49.928;8.410;2023-06-22T06:04:44;14.67;;;10.87;;
6013;SDS011;3035;49.928;8.410;2023-06-22T06:07:12;15.80;;;9.57;;
6013;SDS011;3035;49.928;8.410;2023-06-22T06:09:40;11.77;;;10.47;;
6013;SDS011;3035;49.928;8.410;2023-06-22T06:12:08;12.13;;;10.70;;
6013;SDS011;3035;49.928;8.410;2023-06-22T06:14:36;12.30;;;9.60;;
6013;SDS011;3035;49.928;8.410;2023-06-22T06:17:05;15.33;;;9.40;;
6013;SDS011;3035;49.928;8.410;2023-06-22T06:19:33;9.90;;;8.83;;
6013;SDS011;3035;49.928;8.410;2023-06-22T06:22:01;18.53;;;9.60;;
6013;SDS011;3035;49.928;8.410;2023-06-22T06:24:29;10.63;;;8.80;;
6013;SDS011;3035;49.928;8.410;2023-06-22T06:26:57;14.70;;;9.30;;
6013;SDS011;3035;49.928;8.410;2023-06-22T06:29:26;10.60;;;8.10;;
6013;SDS011;3035;49.928;8.410;2023-06-22T06:31:54;16.90;;;8.50;;
6013;SDS011;3035;49.928;8.410;2023-06-22T06:34:22;10.90;;;8.70;;
6013;SDS011;3035;49.928;8.410;2023-06-22T06:36:50;14.53;;;9.37;;
6013;SDS011;3035;49.928;8.410;2023-06-22T06:39:19;9.10;;;7.63;;
6013;SDS011;3035;49.928;8.410;2023-06-22T06:41:47;10.07;;;8.13;;
6013;SDS011;3035;49.928;8.410;2023-06-22T06:44:15;10.80;;;8.23;;
6013;SDS011;3035;49.928;8.410;2023-06-22T06:46:43;9.10;;;8.07;;
6013;SDS011;3035;49.928;8.410;2023-06-22T06:49:11;10.57;;;7.93;;
6013;SDS011;3035;49.928;8.410;2023-06-22T06:51:40;7.73;;;6.83;;
6013;SDS011;3035;49.928;8.410;2023-06-22T06:54:08;11.00;;;7.70;;
6013;SDS011;3035;49.928;8.410;2023-06-22T06:56:36;11.70;;;9.00;;
6013;SDS011;3035;49.928;8.410;2023-06-22T06:59:04;12.67;;;7.83;;
6013;SDS011;3035;49.928;8.410;2023-06-22T07:01:32;9.73;;;7.90;;
6013;SDS011;3035;49.928;8.410;2023-06-22T07:04:01;11.30;;;7.40;;
6013;SDS011;3035;49.928;8.410;2023-06-22T07:06:29;8.90;;;7.80;;
6013;SDS011;3035;49.928;8.410;2023-06-22T07:08:57;12.57;;;8.10;;
6013;SDS011;3035;49.928;8.410;2023-06-22T07:11:25;13.97;;;7.37;;
6013;SDS011;3035;49.928;8.410;2023-06-22T07:13:53;15.00;;;8.70;;
6013;SDS011;3035;49.928;8.410;2023-06-22T07:16:22;8.77;;;7.87;;
6013;SDS011;3035;49.928;8.410;2023-06-22T07:18:50;11.20;;;8.10;;
6013;SDS011;3035;49.928;8.410;2023-06-22T07:21:18;9.83;;;8.33;;
6013;SDS011;3035;49.928;8.410;2023-06-22T07:23:46;11.80;;;8.10;;
6013;SDS011;3035;49.928;8.410;2023-06-22T07:26:14;13.10;;;8.47;;
6013;SDS011;3035;49.928;8.410;2023-06-22T07:28:44;12.67;;;8.30;;
6013;SDS011;3035;49.928;8.410;2023-06-22T07:31:12;11.43;;;9.07;;
6013;SDS011;3035;49.928;8.410;2023-06-22T07:33:41;11.77;;;8.37;;
6013;SDS011;3035;49.928;8.410;2023-06-22T07:36:09;10.50;;;8.70;;
6013;SDS011;3035;49.928;8.410;2023-06-22T07:38:38;13.77;;;8.90;;
6013;SDS011;3035;49.928;8.410;2023-06-22T07:41:07;16.70;;;8.37;;
6013;SDS011;3035;49.928;8.410;2023-06-22T07:43:35;10.77;;;8.80;;
6013;SDS011;3035;49.928;8.410;2023-06-22T07:46:03;11.40;;;8.93;;
6013;SDS011;3035;49.928;8.410;2023-06-22T07:48:31;11.97;;;8.53;;
6013;SDS011;3035;49.928;8.410;2023-06-22T07:50:59;10.67;;;9.47;;
6013;SDS011;3035;49.928;8.410;2023-06-22T07:53:28;15.90;;;8.70;;
6013;SDS011;3035;49.928;8.410;2023-06-22T07:55:56;10.27;;;9.17;;
6013;SDS011;3035;49.928;8.410;2023-06-22T07:58:24;12.53;;;9.37;;
6013;SDS011;3035;49.928;8.410;2023-06-22T08:00:52;11.37;;;9.17;;
6013;SDS011;3035;49.928;8.410;2023-06-22T08:03:20;9.53;;;8.53;;
6013;SDS011;3035;49.928;8.410;2023-06-22T08:05:49;8.60;;;7.70;;
6013;SDS011;3035;49.928;8.410;2023-06-22T08:08:17;12.10;;;8.00;;
6013;SDS011;3035;49.928;8.410;2023-06-22T08:10:45;10.33;;;8.40;;
6013;SDS011;3035;49.928;8.410;2023-06-22T08:13:13;11.03;;;9.07;;
6013;SDS011;3035;49.928;8.410;2023-06-22T08:15:41;10.27;;;8.77;;
6013;SDS011;3035;49.928;8.410;2023-06-22T08:18:10;10.00;;;8.60;;
6013;SDS011;3035;49.928;8.410;2023-06-22T08:20:38;12.20;;;9.60;;
6013;SDS011;3035;49.928;8.410;2023-06-22T08:23:06;11.53;;;8.60;;
6013;SDS011;3035;49.928;8.410;2023-06-22T08:25:34;10.43;;;8.50;;
6013;SDS011;3035;49.928;8.410;2023-06-22T08:28:03;9.50;;;8.50;;
6013;SDS011;3035;49.928;8.410;2023-06-22T08:30:31;15.73;;;8.77;;
6013;SDS011;3035;49.928;8.410;2023-06-22T08:32:59;9.90;;;8.30;;
6013;SDS011;3035;49.928;8.410;2023-06-22T08:35:27;16.63;;;9.87;;
6013;SDS011;3035;49.928;8.410;2023-06-22T08:37:55;10.83;;;9.53;;
6013;SDS011;3035;49.928;8.410;2023-06-22T08:40:24;11.60;;;8.77;;
6013;SDS011;3035;49.928;8.410;2023-06-22T08:42:52;9.70;;;7.53;;
6013;SDS011;3035;49.928;8.410;2023-06-22T08:45:20;11.20;;;8.17;;
6013;SDS011;3035;49.928;8.410;2023-06-22T08:47:48;10.00;;;7.43;;
6013;SDS011;3035;49.928;8.410;2023-06-22T08:50:16;11.30;;;8.03;;
6013;SDS011;3035;49.928;8.410;2023-06-22T08:52:45;9.97;;;8.13;;
6013;SDS011;3035;49.928;8.410;2023-06-22T08:55:13;9.07;;;8.13;;
6013;SDS011;3035;49.928;8.410;2023-06-22T08:57:41;9.13;;;7.80;;
6013;SDS011;3035;49.928;8.410;2023-06-22T09:00:09;8.87;;;7.60;;
6013;SDS011;3035;49.928;8.410;2023-06-22T09:02:43;12.30;;;7.80;;
6013;SDS011;3035;49.928;8.410;2023-06-22T09:05:11;10.27;;;7.93;;
6013;SDS011;3035;49.928;8.410;2023-06-22T09:07:39;10.40;;;7.77;;
6013;SDS011;3035;49.928;8.410;2023-06-22T09:10:08;9.50;;;8.20;;
6013;SDS011;3035;49.928;8.410;2023-06-22T09:12:36;11.60;;;7.87;;
6013;SDS011;3035;49.928;8.410;2023-06-22T09:15:04;10.57;;;7.43;;
6013;SDS011;3035;49.928;8.410;2023-06-22T09:17:33;8.00;;;7.20;;
6013;SDS011;3035;49.928;8.410;2023-06-22T09:20:01;8.73;;;7.00;;
6013;SDS011;3035;49.928;8.410;2023-06-22T09:22:29;11.77;;;7.00;;
6013;SDS011;3035;49.928;8.410;2023-06-22T09:24:58;8.93;;;7.33;;
6013;SDS011;3035;49.928;8.410;2023-06-22T09:27:26;13.47;;;7.30;;
6013;SDS011;3035;49.928;8.410;2023-06-22T09:29:54;11.00;;;7.43;;
6013;SDS011;3035;49.928;8.410;2023-06-22T09:32:22;12.43;;;6.67;;
6013;SDS011;3035;49.928;8.410;2023-06-22T09:34:50;19.10;;;7.60;;
6013;SDS011;3035;49.928;8.410;2023-06-22T09:37:19;9.80;;;6.70;;
6013;SDS011;3035;49.928;8.410;2023-06-22T09:39:47;8.13;;;6.70;;
6013;SDS011;3035;49.928;8.410;2023-06-22T09:42:15;8.30;;;6.57;;
6013;SDS011;3035;49.928;8.410;2023-06-22T09:44:43;7.23;;;5.77;;
6013;SDS011;3035;49.928;8.410;2023-06-22T09:47:11;9.13;;;6.83;;
6013;SDS011;3035;49.928;8.410;2023-06-22T09:49:40;8.37;;;6.20;;
6013;SDS011;3035;49.928;8.410;2023-06-22T09:52:08;9.17;;;6.97;;
6013;SDS011;3035;49.928;8.410;2023-06-22T09:54:36;18.43;;;7.50;;
6013;SDS011;3035;49.928;8.410;2023-06-22T09:57:04;9.67;;;7.07;;
6013;SDS011;3035;49.928;8.410;2023-06-22T09:59:32;7.77;;;6.87;;
6013;SDS011;3035;49.928;8.410;2023-06-22T10:02:01;10.50;;;6.47;;
6013;SDS011;3035;49.928;8.410;2023-06-22T10:04:29;10.23;;;6.80;;
6013;SDS011;3035;49.928;8.410;2023-06-22T10:06:57;9.30;;;8.07;;
6013;SDS011;3035;49.928;8.410;2023-06-22T10:09:25;10.53;;;7.40;;
6013;SDS011;3035;49.928;8.410;2023-06-22T10:11:55;8.77;;;6.13;;
6013;SDS011;3035;49.928;8.410;2023-06-22T10:14:23;12.53;;;6.87;;
6013;SDS011;3035;49.928;8.410;2023-06-22T10:16:52;9.10;;;7.17;;
6013;SDS011;3035;49.928;8.410;2023-06-22T10:19:20;11.03;;;6.30;;
6013;SDS011;3035;49.928;8.410;2023-06-22T10:21:48;12.53;;;6.50;;
6013;SDS011;3035;49.928;8.410;2023-06-22T10:24:17;9.33;;;7.33;;
6013;SDS011;3035;49.928;8.410;2023-06-22T10:26:45;14.00;;;7.70;;
6013;SDS011;3035;49.928;8.410;2023-06-22T10:29:13;8.60;;;6.27;;
6013;SDS011;3035;49.928;8.410;2023-06-22T10:31:42;7.00;;;6.30;;
6013;SDS011;3035;49.928;8.410;2023-06-22T10:34:10;7.80;;;6.13;;
6013;SDS011;3035;49.928;8.410;2023-06-22T10:36:38;13.77;;;7.60;;
6013;SDS011;3035;49.928;8.410;2023-06-22T10:39:06;10.67;;;6.70;;
6013;SDS011;3035;49.928;8.410;2023-06-22T10:41:35;15.40;;;6.73;;
6013;SDS011;3035;49.928;8.410;2023-06-22T10:44:03;12.00;;;7.23;;
6013;SDS011;3035;49.928;8.410;2023-06-22T10:46:31;12.13;;;6.87;;
6013;SDS011;3035;49.928;8.410;2023-06-22T10:48:59;10.83;;;6.67;;
6013;SDS011;3035;49.928;8.410;2023-06-22T10:51:27;9.50;;;5.90;;
6013;SDS011;3035;49.928;8.410;2023-06-22T10:53:56;7.73;;;5.83;;
6013;SDS011;3035;49.928;8.410;2023-06-22T10:56:24;11.93;;;6.87;;
6013;SDS011;3035;49.928;8.410;2023-06-22T10:58:52;12.23;;;6.60;;
6013;SDS011;3035;49.928;8.410;2023-06-22T11:01:20;16.70;;;5.80;;
6013;SDS011;3035;49.928;8.410;2023-06-22T11:03:48;9.10;;;6.20;;
6013;SDS011;3035;49.928;8.410;2023-06-22T11:06:17;21.73;;;6.87;;
6013;SDS011;3035;49.928;8.410;2023-06-22T11:08:45;8.90;;;6.07;;
6013;SDS011;3035;49.928;8.410;2023-06-22T11:11:13;9.10;;;6.70;;
6013;SDS011;3035;49.928;8.410;2023-06-22T11:13:41;8.93;;;6.07;;
6013;SDS011;3035;49.928;8.410;2023-06-22T11:16:10;8.80;;;6.17;;
6013;SDS011;3035;49.928;8.410;2023-06-22T11:18:38;13.60;;;5.57;;
6013;SDS011;3035;49.928;8.410;2023-06-22T11:21:06;10.93;;;5.87;;
6013;SDS011;3035;49.928;8.410;2023-06-22T11:23:34;10.40;;;7.20;;
6013;SDS011;3035;49.928;8.410;2023-06-22T11:26:02;9.80;;;5.93;;
6013;SDS011;3035;49.928;8.410;2023-06-22T11:28:30;7.53;;;6.20;;
6013;SDS011;3035;49.928;8.410;2023-06-22T11:30:59;10.70;;;6.03;;
6013;SDS011;3035;49.928;8.410;2023-06-22T11:33:27;9.67;;;5.90;;
6013;SDS011;3035;49.928;8.410;2023-06-22T11:35:55;9.47;;;6.40;;
6013;SDS011;3035;49.928;8.410;2023-06-22T11:38:23;8.20;;;6.63;;
6013;SDS011;3035;49.928;8.410;2023-06-22T11:40:51;9.17;;;6.30;;
6013;SDS011;3035;49.928;8.410;2023-06-22T11:43:20;15.13;;;6.03;;
6013;SDS011;3035;49.928;8.410;2023-06-22T11:45:48;11.63;;;5.70;;
6013;SDS011;3035;49.928;8.410;2023-06-22T11:48:16;14.13;;;5.83;;
6013;SDS011;3035;49.928;8.410;2023-06-22T11:50:44;7.63;;;5.47;;
6013;SDS011;3035;49.928;8.410;2023-06-22T11:53:12;9.47;;;6.60;;
6013;SDS011;3035;49.928;8.410;2023-06-22T11:55:41;14.73;;;6.30;;
6013;SDS011;3035;49.928;8.410;2023-06-22T11:58:09;8.27;;;5.80;;
6013;SDS011;3035;49.928;8.410;2023-06-22T12:00:37;7.20;;;5.22;;
6013;SDS011;3035;49.928;8.410;2023-06-22T12:03:05;13.55;;;6.18;;
6013;SDS011;3035;49.928;8.410;2023-06-22T12:05:33;7.85;;;5.05;;
6013;SDS011;3035;49.928;8.410;2023-06-22T12:08:02;11.10;;;5.63;;
6013;SDS011;3035;49.928;8.410;2023-06-22T12:10:30;8.55;;;5.40;;
6013;SDS011;3035;49.928;8.410;2023-06-22T12:12:58;7.45;;;5.45;;
6013;SDS011;3035;49.928;8.410;2023-06-22T12:15:26;8.40;;;6.18;;
6013;SDS011;3035;49.928;8.410;2023-06-22T12:17:54;10.48;;;6.55;;
6013;SDS011;3035;49.928;8.410;2023-06-22T12:20:23;8.30;;;5.27;;
6013;SDS011;3035;49.928;8.410;2023-06-22T12:22:51;13.85;;;6.10;;
6013;SDS011;3035;49.928;8.410;2023-06-22T12:25:19;15.32;;;5.75;;
6013;SDS011;3035;49.928;8.410;2023-06-22T12:27:47;8.03;;;6.20;;
6013;SDS011;3035;49.928;8.410;2023-06-22T12:30:16;6.80;;;5.13;;
6013;SDS011;3035;49.928;8.410;2023-06-22T12:32:44;9.80;;;5.67;;
6013;SDS011;3035;49.928;8.410;2023-06-22T12:35:12;8.27;;;5.60;;
6013;SDS011;3035;49.928;8.410;2023-06-22T12:37:41;8.73;;;5.90;;
6013;SDS011;3035;49.928;8.410;2023-06-22T12:40:09;11.10;;;6.17;;
6013;SDS011;3035;49.928;8.410;2023-06-22T12:42:37;9.63;;;6.43;;
6013;SDS011;3035;49.928;8.410;2023-06-22T12:45:05;8.83;;;6.50;;
6013;SDS011;3035;49.928;8.410;2023-06-22T12:47:34;7.27;;;6.03;;
6013;SDS011;3035;49.928;8.410;2023-06-22T12:50:02;9.73;;;6.13;;
6013;SDS011;3035;49.928;8.410;2023-06-22T12:52:31;10.87;;;5.93;;
6013;SDS011;3035;49.928;8.410;2023-06-22T12:54:59;9.13;;;6.07;;
6013;SDS011;3035;49.928;8.410;2023-06-22T12:57:27;11.80;;;6.50;;
6013;SDS011;3035;49.928;8.410;2023-06-22T12:59:56;6.93;;;5.47;;
6013;SDS011;3035;49.928;8.410;2023-06-22T13:02:24;12.20;;;6.70;;
6013;SDS011;3035;49.928;8.410;2023-06-22T13:04:53;8.00;;;5.93;;
6013;SDS011;3035;49.928;8.410;2023-06-22T13:07:20;7.93;;;5.60;;
6013;SDS011;3035;49.928;8.410;2023-06-22T13:09:49;10.10;;;6.20;;
6013;SDS011;3035;49.928;8.410;2023-06-22T13:12:20;6.97;;;5.80;;
6013;SDS011;3035;49.928;8.410;2023-06-22T13:14:48;10.97;;;6.57;;
6013;SDS011;3035;49.928;8.410;2023-06-22T13:17:16;8.50;;;5.50;;
6013;SDS011;3035;49.928;8.410;2023-06-22T13:19:44;11.90;;;6.07;;
6013;SDS011;3035;49.928;8.410;2023-06-22T13:24:57;6.57;;;5.53;;
6013;SDS011;3035;49.928;8.410;2023-06-22T13:27:26;9.93;;;6.43;;
6013;SDS011;3035;49.928;8.410;2023-06-22T13:29:54;6.80;;;4.80;;
6013;SDS011;3035;49.928;8.410;2023-06-22T13:32:22;9.20;;;5.40;;
6013;SDS011;3035;49.928;8.410;2023-06-22T13:34:51;9.53;;;4.53;;
6013;SDS011;3035;49.928;8.410;2023-06-22T13:37:18;9.20;;;4.65;;
6013;SDS011;3035;49.928;8.410;2023-06-22T13:39:47;12.00;;;4.90;;
6013;SDS011;3035;49.928;8.410;2023-06-22T13:42:15;13.25;;;3.90;;
6013;SDS011;3035;49.928;8.410;2023-06-22T13:44:43;8.65;;;3.67;;
6013;SDS011;3035;49.928;8.410;2023-06-22T13:47:11;6.43;;;4.40;;
6013;SDS011;3035;49.928;8.410;2023-06-22T13:49:40;6.80;;;4.03;;
6013;SDS011;3035;49.928;8.410;2023-06-22T13:52:10;13.02;;;5.28;;
6013;SDS011;3035;49.928;8.410;2023-06-22T13:54:39;12.48;;;3.70;;
6013;SDS011;3035;49.928;8.410;2023-06-22T13:57:07;13.23;;;4.90;;
6013;SDS011;3035;49.928;8.410;2023-06-22T13:59:36;7.65;;;3.67;;
6013;SDS011;3035;49.928;8.410;2023-06-22T14:02:05;8.10;;;3.62;;
6013;SDS011;3035;49.928;8.410;2023-06-22T14:04:34;12.25;;;3.87;;
6013;SDS011;3035;49.928;8.410;2023-06-22T14:07:02;10.77;;;3.83;;
6013;SDS011;3035;49.928;8.410;2023-06-22T14:09:32;16.12;;;4.60;;
6013;SDS011;3035;49.928;8.410;2023-06-22T14:12:03;11.90;;;4.20;;
6013;SDS011;3035;49.928;8.410;2023-06-22T14:14:33;7.35;;;4.10;;
6013;SDS011;3035;49.928;8.410;2023-06-22T14:17:01;12.68;;;4.25;;
6013;SDS011;3035;49.928;8.410;2023-06-22T14:19:29;25.40;;;5.17;;
6013;SDS011;3035;49.928;8.410;2023-06-22T14:21:57;13.32;;;4.62;;
6013;SDS011;3035;49.928;8.410;2023-06-22T14:24:26;9.10;;;4.73;;
6013;SDS011;3035;49.928;8.410;2023-06-22T14:26:55;10.80;;;3.97;;
6013;SDS011;3035;49.928;8.410;2023-06-22T14:29:23;15.50;;;3.87;;
6013;SDS011;3035;49.928;8.410;2023-06-22T14:31:52;11.50;;;5.00;;
6013;SDS011;3035;49.928;8.410;2023-06-22T14:34:21;7.03;;;3.90;;
6013;SDS011;3035;49.928;8.410;2023-06-22T14:36:49;6.47;;;4.30;;
6013;SDS011;3035;49.928;8.410;2023-06-22T14:39:17;13.73;;;4.80;;
6013;SDS011;3035;49.928;8.410;2023-06-22T14:41:45;12.87;;;4.43;;
6013;SDS011;3035;49.928;8.410;2023-06-22T14:44:13;8.50;;;4.27;;
6013;SDS011;3035;49.928;8.410;2023-06-22T14:46:42;8.20;;;4.57;;
6013;SDS011;3035;49.928;8.410;2023-06-22T14:49:10;13.60;;;5.07;;
6013;SDS011;3035;49.928;8.410;2023-06-22T14:51:38;19.70;;;5.20;;
6013;SDS011;3035;49.928;8.410;2023-06-22T14:54:06;11.90;;;4.40;;
6013;SDS011;3035;49.928;8.410;2023-06-22T14:56:34;17.40;;;4.70;;
6013;SDS011;3035;49.928;8.410;2023-06-22T14:59:03;12.43;;;4.93;;
6013;SDS011;3035;49.928;8.410;2023-06-22T15:01:31;15.30;;;5.00;;
6013;SDS011;3035;49.928;8.410;2023-06-22T15:03:59;7.20;;;4.33;;
6013;SDS011;3035;49.928;8.410;2023-06-22T15:06:27;15.67;;;4.70;;
6013;SDS011;3035;49.928;8.410;2023-06-22T15:08:55;15.17;;;5.50;;
6013;SDS011;3035;49.928;8.410;2023-06-22T15:11:25;20.50;;;4.10;;
6013;SDS011;3035;49.928;8.410;2023-06-22T15:13:52;19.47;;;4.60;;
6013;SDS011;3035;49.928;8.410;2023-06-22T15:16:20;19.43;;;4.87;;